Chase Lake, New York
Current Conditions -  °F | °C
As of 2:28 PM on Thursday 27 Nov 2014 (Local Time) from KGTB Reporting Station
Light Snow Light Snow  
Wind Chill: 27°   Ceiling: 5000
Heat Index: 27°   Visibility: 4mi
Dew Point: 23°   Wind: 2mph
Humidity: 86%   Direction: 30°NNE
Pressure: 30.01"   Gusts: NA
Location:  43.7232°N, 75.2497°W
Report Text: KGTB 271928Z AUTO 03002KT 4SM -SN SCT014 OVC050 M03/M05 A3001 RMK AO2
Loading
Personal Weather Stations






























Interactive Weather Map New forecast layout! Learn more

10-Day Weather Forecast

Advertisements
Track Severe Weather on mobile